sensor_id;sensor_type;location;lat;lon;timestamp;P1;durP1;ratioP1;P2;durP2;ratioP2
21507;SDS011;10915;54.352;9.074;2022-12-18T06:52:16;40.83;;;15.80;;
21507;SDS011;10915;54.352;9.074;2022-12-18T06:54:42;27.23;;;14.13;;
21507;SDS011;10915;54.352;9.074;2022-12-18T06:57:08;33.40;;;14.30;;
21507;SDS011;10915;54.352;9.074;2022-12-18T06:59:33;37.30;;;18.33;;
21507;SDS011;10915;54.352;9.074;2022-12-18T07:01:59;40.67;;;23.03;;
21507;SDS011;10915;54.352;9.074;2022-12-18T07:04:28;35.97;;;21.63;;
21507;SDS011;10915;54.352;9.074;2022-12-18T07:06:54;36.53;;;19.20;;
21507;SDS011;10915;54.352;9.074;2022-12-18T07:09:20;36.60;;;20.83;;
21507;SDS011;10915;54.352;9.074;2022-12-18T07:11:46;32.47;;;17.00;;
21507;SDS011;10915;54.352;9.074;2022-12-18T07:14:11;40.60;;;18.17;;
21507;SDS011;10915;54.352;9.074;2022-12-18T07:16:37;30.23;;;17.70;;
21507;SDS011;10915;54.352;9.074;2022-12-18T07:19:03;38.73;;;18.70;;
21507;SDS011;10915;54.352;9.074;2022-12-18T07:21:28;33.40;;;17.00;;
21507;SDS011;10915;54.352;9.074;2022-12-18T07:23:54;31.57;;;18.40;;
21507;SDS011;10915;54.352;9.074;2022-12-18T07:26:20;35.97;;;17.53;;
21507;SDS011;10915;54.352;9.074;2022-12-18T07:28:46;33.67;;;17.57;;
21507;SDS011;10915;54.352;9.074;2022-12-18T07:31:17;28.37;;;16.33;;
21507;SDS011;10915;54.352;9.074;2022-12-18T07:33:45;36.47;;;16.97;;
21507;SDS011;10915;54.352;9.074;2022-12-18T07:36:11;27.50;;;15.40;;
21507;SDS011;10915;54.352;9.074;2022-12-18T07:38:37;35.70;;;17.63;;
21507;SDS011;10915;54.352;9.074;2022-12-18T07:41:12;38.40;;;17.43;;
21507;SDS011;10915;54.352;9.074;2022-12-18T07:43:39;32.37;;;17.53;;
21507;SDS011;10915;54.352;9.074;2022-12-18T07:46:06;31.13;;;16.87;;
21507;SDS011;10915;54.352;9.074;2022-12-18T07:48:32;30.60;;;16.03;;
21507;SDS011;10915;54.352;9.074;2022-12-18T07:50:59;24.63;;;14.97;;
21507;SDS011;10915;54.352;9.074;2022-12-18T07:53:29;27.60;;;15.00;;
21507;SDS011;10915;54.352;9.074;2022-12-18T07:56:00;29.70;;;16.53;;
21507;SDS011;10915;54.352;9.074;2022-12-18T07:58:30;33.23;;;17.30;;
21507;SDS011;10915;54.352;9.074;2022-12-18T08:01:08;30.93;;;16.10;;
21507;SDS011;10915;54.352;9.074;2022-12-18T08:03:35;27.87;;;14.77;;
21507;SDS011;10915;54.352;9.074;2022-12-18T08:06:04;30.33;;;15.13;;
21507;SDS011;10915;54.352;9.074;2022-12-18T08:08:33;27.93;;;14.83;;
21507;SDS011;10915;54.352;9.074;2022-12-18T08:10:59;29.93;;;15.37;;
21507;SDS011;10915;54.352;9.074;2022-12-18T08:13:25;28.67;;;15.37;;
21507;SDS011;10915;54.352;9.074;2022-12-18T08:15:56;28.43;;;15.80;;
21507;SDS011;10915;54.352;9.074;2022-12-18T08:18:27;26.77;;;13.93;;
21507;SDS011;10915;54.352;9.074;2022-12-18T08:21:02;28.33;;;15.73;;
21507;SDS011;10915;54.352;9.074;2022-12-18T08:23:40;26.20;;;14.47;;
21507;SDS011;10915;54.352;9.074;2022-12-18T08:26:06;24.23;;;14.40;;
21507;SDS011;10915;54.352;9.074;2022-12-18T08:28:32;29.37;;;16.37;;
21507;SDS011;10915;54.352;9.074;2022-12-18T08:30:58;29.53;;;25.37;;
21507;SDS011;10915;54.352;9.074;2022-12-18T08:33:24;23.83;;;14.07;;
21507;SDS011;10915;54.352;9.074;2022-12-18T08:35:51;30.77;;;14.73;;
21507;SDS011;10915;54.352;9.074;2022-12-18T08:38:17;24.07;;;12.30;;
21507;SDS011;10915;54.352;9.074;2022-12-18T08:40:42;25.77;;;22.30;;
21507;SDS011;10915;54.352;9.074;2022-12-18T08:43:09;24.47;;;13.63;;
21507;SDS011;10915;54.352;9.074;2022-12-18T08:45:57;25.13;;;12.67;;
21507;SDS011;10915;54.352;9.074;2022-12-18T08:48:23;20.30;;;10.73;;
21507;SDS011;10915;54.352;9.074;2022-12-18T08:50:58;21.93;;;12.03;;
21507;SDS011;10915;54.352;9.074;2022-12-18T08:53:25;24.83;;;10.83;;
21507;SDS011;10915;54.352;9.074;2022-12-18T08:55:53;24.37;;;11.80;;
21507;SDS011;10915;54.352;9.074;2022-12-18T08:58:19;22.47;;;12.47;;
21507;SDS011;10915;54.352;9.074;2022-12-18T09:00:45;20.37;;;10.47;;
21507;SDS011;10915;54.352;9.074;2022-12-18T09:03:17;16.93;;;10.20;;
21507;SDS011;10915;54.352;9.074;2022-12-18T09:05:47;22.00;;;10.07;;
21507;SDS011;10915;54.352;9.074;2022-12-18T09:08:13;20.57;;;10.67;;
21507;SDS011;10915;54.352;9.074;2022-12-18T09:10:43;21.57;;;9.20;;
21507;SDS011;10915;54.352;9.074;2022-12-18T09:13:13;20.67;;;11.13;;
21507;SDS011;10915;54.352;9.074;2022-12-18T09:15:50;20.53;;;11.83;;
21507;SDS011;10915;54.352;9.074;2022-12-18T09:18:18;16.57;;;9.70;;
21507;SDS011;10915;54.352;9.074;2022-12-18T09:20:45;22.10;;;9.20;;
21507;SDS011;10915;54.352;9.074;2022-12-18T09:23:11;22.07;;;10.93;;
21507;SDS011;10915;54.352;9.074;2022-12-18T09:25:38;21.53;;;10.87;;
21507;SDS011;10915;54.352;9.074;2022-12-18T09:28:09;19.07;;;9.03;;
21507;SDS011;10915;54.352;9.074;2022-12-18T09:30:39;23.33;;;9.87;;
21507;SDS011;10915;54.352;9.074;2022-12-18T09:33:07;17.83;;;9.13;;
21507;SDS011;10915;54.352;9.074;2022-12-18T09:35:36;22.60;;;9.30;;
21507;SDS011;10915;54.352;9.074;2022-12-18T09:38:02;18.70;;;9.80;;
21507;SDS011;10915;54.352;9.074;2022-12-18T09:40:28;23.87;;;10.47;;
21507;SDS011;10915;54.352;9.074;2022-12-18T09:43:03;20.07;;;10.00;;
21507;SDS011;10915;54.352;9.074;2022-12-18T09:45:37;17.60;;;14.30;;
21507;SDS011;10915;54.352;9.074;2022-12-18T09:48:15;23.40;;;8.27;;
21507;SDS011;10915;54.352;9.074;2022-12-18T09:50:53;17.13;;;8.60;;
21507;SDS011;10915;54.352;9.074;2022-12-18T09:53:25;16.83;;;8.53;;
21507;SDS011;10915;54.352;9.074;2022-12-18T09:55:58;15.83;;;7.47;;
21507;SDS011;10915;54.352;9.074;2022-12-18T10:15:41;18.27;;;9.03;;
21507;SDS011;10915;54.352;9.074;2022-12-18T10:20:44;16.17;;;8.40;;
21507;SDS011;10915;54.352;9.074;2022-12-18T10:26:02;15.70;;;8.10;;
21507;SDS011;10915;54.352;9.074;2022-12-18T10:28:30;14.73;;;8.00;;
21507;SDS011;10915;54.352;9.074;2022-12-18T10:30:57;14.67;;;8.27;;
21507;SDS011;10915;54.352;9.074;2022-12-18T10:33:24;13.87;;;7.73;;
21507;SDS011;10915;54.352;9.074;2022-12-18T10:35:54;15.53;;;8.93;;
21507;SDS011;10915;54.352;9.074;2022-12-18T10:38:21;13.57;;;8.07;;
21507;SDS011;10915;54.352;9.074;2022-12-18T10:43:51;15.27;;;8.40;;
21507;SDS011;10915;54.352;9.074;2022-12-18T10:48:37;15.47;;;8.37;;
21507;SDS011;10915;54.352;9.074;2022-12-18T10:51:16;19.00;;;8.57;;
21507;SDS011;10915;54.352;9.074;2022-12-18T10:54:03;14.37;;;7.60;;
21507;SDS011;10915;54.352;9.074;2022-12-18T10:56:30;13.57;;;7.77;;
21507;SDS011;10915;54.352;9.074;2022-12-18T10:59:02;14.97;;;11.17;;
21507;SDS011;10915;54.352;9.074;2022-12-18T11:06:52;14.73;;;7.47;;
21507;SDS011;10915;54.352;9.074;2022-12-18T11:09:30;13.27;;;8.07;;
21507;SDS011;10915;54.352;9.074;2022-12-18T11:12:01;18.77;;;8.20;;
21507;SDS011;10915;54.352;9.074;2022-12-18T11:14:43;12.13;;;6.87;;
21507;SDS011;10915;54.352;9.074;2022-12-18T11:17:20;13.50;;;7.87;;
21507;SDS011;10915;54.352;9.074;2022-12-18T11:19:57;16.80;;;8.40;;
21507;SDS011;10915;54.352;9.074;2022-12-18T11:22:31;14.27;;;7.40;;
21507;SDS011;10915;54.352;9.074;2022-12-18T11:25:06;15.53;;;10.80;;
21507;SDS011;10915;54.352;9.074;2022-12-18T11:27:48;15.90;;;7.13;;
21507;SDS011;10915;54.352;9.074;2022-12-18T11:30:35;13.90;;;7.93;;
21507;SDS011;10915;54.352;9.074;2022-12-18T11:33:36;16.27;;;7.20;;
21507;SDS011;10915;54.352;9.074;2022-12-18T11:35:56;11.00;;;7.37;;
21507;SDS011;10915;54.352;9.074;2022-12-18T11:38:32;14.43;;;7.63;;
21507;SDS011;10915;54.352;9.074;2022-12-18T11:44:22;15.77;;;8.87;;
21507;SDS011;10915;54.352;9.074;2022-12-18T11:47:20;12.57;;;6.77;;
21507;SDS011;10915;54.352;9.074;2022-12-18T11:49:47;14.73;;;7.67;;
21507;SDS011;10915;54.352;9.074;2022-12-18T11:54:43;18.83;;;7.20;;
21507;SDS011;10915;54.352;9.074;2022-12-18T12:00:12;12.33;;;7.07;;
21507;SDS011;10915;54.352;9.074;2022-12-18T12:19:24;28.20;;;13.38;;
21507;SDS011;10915;54.352;9.074;2022-12-18T12:22:20;15.15;;;12.90;;
21507;SDS011;10915;54.352;9.074;2022-12-18T12:39:08;14.32;;;7.70;;
21507;SDS011;10915;54.352;9.074;2022-12-18T12:41:40;12.33;;;7.70;;
21507;SDS011;10915;54.352;9.074;2022-12-18T12:44:26;15.67;;;7.93;;
21507;SDS011;10915;54.352;9.074;2022-12-18T12:46:56;13.47;;;8.00;;
21507;SDS011;10915;54.352;9.074;2022-12-18T12:49:26;14.23;;;7.83;;
21507;SDS011;10915;54.352;9.074;2022-12-18T12:52:04;14.07;;;8.03;;
21507;SDS011;10915;54.352;9.074;2022-12-18T12:54:46;12.13;;;7.67;;
21507;SDS011;10915;54.352;9.074;2022-12-18T12:57:19;14.67;;;8.00;;
21507;SDS011;10915;54.352;9.074;2022-12-18T13:00:09;15.23;;;11.90;;
21507;SDS011;10915;54.352;9.074;2022-12-18T13:08:24;16.80;;;9.77;;
21507;SDS011;10915;54.352;9.074;2022-12-18T13:10:52;16.40;;;9.33;;
21507;SDS011;10915;54.352;9.074;2022-12-18T13:13:51;16.60;;;9.27;;
21507;SDS011;10915;54.352;9.074;2022-12-18T13:16:22;15.37;;;8.87;;
21507;SDS011;10915;54.352;9.074;2022-12-18T13:18:50;13.00;;;8.03;;
21507;SDS011;10915;54.352;9.074;2022-12-18T13:21:20;15.77;;;8.60;;
21507;SDS011;10915;54.352;9.074;2022-12-18T13:23:49;15.13;;;7.70;;
21507;SDS011;10915;54.352;9.074;2022-12-18T13:31:11;11.97;;;8.67;;
21507;SDS011;10915;54.352;9.074;2022-12-18T13:36:54;16.80;;;8.57;;
21507;SDS011;10915;54.352;9.074;2022-12-18T13:39:31;14.60;;;7.83;;
21507;SDS011;10915;54.352;9.074;2022-12-18T13:42:31;14.60;;;7.83;;
21507;SDS011;10915;54.352;9.074;2022-12-18T13:45:07;13.10;;;6.63;;
21507;SDS011;10915;54.352;9.074;2022-12-18T13:48:26;13.13;;;7.73;;
21507;SDS011;10915;54.352;9.074;2022-12-18T13:51:01;13.07;;;7.73;;
21507;SDS011;10915;54.352;9.074;2022-12-18T13:53:34;12.40;;;7.23;;
21507;SDS011;10915;54.352;9.074;2022-12-18T13:56:09;14.37;;;7.53;;
21507;SDS011;10915;54.352;9.074;2022-12-18T13:58:45;11.37;;;6.77;;
21507;SDS011;10915;54.352;9.074;2022-12-18T14:01:27;14.13;;;7.33;;
21507;SDS011;10915;54.352;9.074;2022-12-18T14:04:08;13.90;;;7.17;;
21507;SDS011;10915;54.352;9.074;2022-12-18T14:06:43;13.57;;;7.57;;
21507;SDS011;10915;54.352;9.074;2022-12-18T14:09:14;16.43;;;7.43;;
21507;SDS011;10915;54.352;9.074;2022-12-18T14:11:47;12.63;;;6.27;;
21507;SDS011;10915;54.352;9.074;2022-12-18T14:14:15;12.57;;;6.97;;
21507;SDS011;10915;54.352;9.074;2022-12-18T14:16:42;12.57;;;6.53;;
21507;SDS011;10915;54.352;9.074;2022-12-18T14:19:10;11.77;;;6.07;;
21507;SDS011;10915;54.352;9.074;2022-12-18T14:21:45;14.53;;;6.47;;
21507;SDS011;10915;54.352;9.074;2022-12-18T14:24:20;15.30;;;7.43;;
21507;SDS011;10915;54.352;9.074;2022-12-18T14:26:49;14.75;;;6.82;;
21507;SDS011;10915;54.352;9.074;2022-12-18T14:32:12;18.88;;;13.95;;
21507;SDS011;10915;54.352;9.074;2022-12-18T14:34:42;17.25;;;13.88;;
21507;SDS011;10915;54.352;9.074;2022-12-18T14:37:13;19.37;;;10.07;;
21507;SDS011;10915;54.352;9.074;2022-12-18T14:39:51;16.47;;;9.10;;
21507;SDS011;10915;54.352;9.074;2022-12-18T14:42:31;18.23;;;9.30;;
21507;SDS011;10915;54.352;9.074;2022-12-18T14:48:05;17.33;;;9.37;;
21507;SDS011;10915;54.352;9.074;2022-12-18T14:50:43;15.25;;;6.78;;
21507;SDS011;10915;54.352;9.074;2022-12-18T14:53:20;16.48;;;8.55;;
21507;SDS011;10915;54.352;9.074;2022-12-18T14:56:20;21.95;;;16.30;;
21507;SDS011;10915;54.352;9.074;2022-12-18T14:58:49;21.00;;;14.10;;
21507;SDS011;10915;54.352;9.074;2022-12-18T15:01:23;21.20;;;10.43;;
21507;SDS011;10915;54.352;9.074;2022-12-18T15:03:58;21.20;;;15.63;;
21507;SDS011;10915;54.352;9.074;2022-12-18T15:06:35;28.10;;;15.30;;
21507;SDS011;10915;54.352;9.074;2022-12-18T15:09:20;22.53;;;14.67;;
21507;SDS011;10915;54.352;9.074;2022-12-18T15:35:17;25.47;;;13.23;;
21507;SDS011;10915;54.352;9.074;2022-12-18T15:37:43;26.07;;;12.90;;
21507;SDS011;10915;54.352;9.074;2022-12-18T15:40:13;21.27;;;12.63;;
21507;SDS011;10915;54.352;9.074;2022-12-18T15:42:40;25.87;;;12.57;;
21507;SDS011;10915;54.352;9.074;2022-12-18T15:45:25;25.57;;;13.37;;
21507;SDS011;10915;54.352;9.074;2022-12-18T15:47:50;26.70;;;13.77;;
21507;SDS011;10915;54.352;9.074;2022-12-18T15:50:16;19.40;;;11.47;;
21507;SDS011;10915;54.352;9.074;2022-12-18T15:52:43;27.20;;;13.73;;
21507;SDS011;10915;54.352;9.074;2022-12-18T15:55:14;23.17;;;12.90;;
21507;SDS011;10915;54.352;9.074;2022-12-18T15:58:00;22.40;;;11.33;;
21507;SDS011;10915;54.352;9.074;2022-12-18T16:00:26;21.77;;;12.00;;
21507;SDS011;10915;54.352;9.074;2022-12-18T16:02:52;21.98;;;12.50;;
21507;SDS011;10915;54.352;9.074;2022-12-18T16:05:18;24.17;;;18.27;;
21507;SDS011;10915;54.352;9.074;2022-12-18T16:07:45;27.20;;;16.13;;
21507;SDS011;10915;54.352;9.074;2022-12-18T16:10:11;25.17;;;15.93;;
21507;SDS011;10915;54.352;9.074;2022-12-18T16:12:37;24.30;;;14.47;;
21507;SDS011;10915;54.352;9.074;2022-12-18T16:15:04;21.63;;;14.47;;
21507;SDS011;10915;54.352;9.074;2022-12-18T16:17:30;20.00;;;13.03;;
21507;SDS011;10915;54.352;9.074;2022-12-18T16:19:56;20.37;;;12.63;;
21507;SDS011;10915;54.352;9.074;2022-12-18T16:22:22;18.93;;;12.17;;
21507;SDS011;10915;54.352;9.074;2022-12-18T16:24:50;22.50;;;12.80;;
21507;SDS011;10915;54.352;9.074;2022-12-18T16:27:16;20.33;;;12.13;;
21507;SDS011;10915;54.352;9.074;2022-12-18T16:29:43;23.60;;;12.83;;
21507;SDS011;10915;54.352;9.074;2022-12-18T16:32:10;19.57;;;12.13;;
21507;SDS011;10915;54.352;9.074;2022-12-18T16:34:41;22.90;;;12.57;;
21507;SDS011;10915;54.352;9.074;2022-12-18T16:37:09;24.13;;;12.27;;
21507;SDS011;10915;54.352;9.074;2022-12-18T16:39:36;19.40;;;11.23;;
21507;SDS011;10915;54.352;9.074;2022-12-18T16:42:08;22.00;;;11.73;;
21507;SDS011;10915;54.352;9.074;2022-12-18T16:44:37;22.30;;;12.57;;
21507;SDS011;10915;54.352;9.074;2022-12-18T16:47:03;23.53;;;11.60;;
21507;SDS011;10915;54.352;9.074;2022-12-18T16:49:29;22.40;;;11.43;;
21507;SDS011;10915;54.352;9.074;2022-12-18T16:51:55;23.23;;;12.13;;
21507;SDS011;10915;54.352;9.074;2022-12-18T16:54:20;24.43;;;11.20;;
21507;SDS011;10915;54.352;9.074;2022-12-18T16:56:46;22.67;;;15.87;;
21507;SDS011;10915;54.352;9.074;2022-12-18T16:59:14;25.73;;;15.03;;
21507;SDS011;10915;54.352;9.074;2022-12-18T17:01:40;22.93;;;14.37;;
21507;SDS011;10915;54.352;9.074;2022-12-18T17:04:05;23.57;;;13.50;;
21507;SDS011;10915;54.352;9.074;2022-12-18T17:06:33;24.57;;;12.97;;
21507;SDS011;10915;54.352;9.074;2022-12-18T17:09:03;28.17;;;12.93;;
21507;SDS011;10915;54.352;9.074;2022-12-18T17:11:32;22.07;;;12.93;;
21507;SDS011;10915;54.352;9.074;2022-12-18T17:13:58;24.40;;;12.47;;
21507;SDS011;10915;54.352;9.074;2022-12-18T17:16:24;22.40;;;12.67;;
21507;SDS011;10915;54.352;9.074;2022-12-18T17:18:53;26.23;;;12.70;;
21507;SDS011;10915;54.352;9.074;2022-12-18T17:21:19;25.20;;;12.13;;
21507;SDS011;10915;54.352;9.074;2022-12-18T17:23:44;21.07;;;13.27;;
21507;SDS011;10915;54.352;9.074;2022-12-18T17:26:11;23.07;;;12.40;;
21507;SDS011;10915;54.352;9.074;2022-12-18T17:28:37;24.13;;;12.83;;
21507;SDS011;10915;54.352;9.074;2022-12-18T17:31:11;25.80;;;12.67;;
21507;SDS011;10915;54.352;9.074;2022-12-18T17:33:37;22.93;;;12.63;;
21507;SDS011;10915;54.352;9.074;2022-12-18T17:36:03;25.07;;;12.43;;
21507;SDS011;10915;54.352;9.074;2022-12-18T17:38:29;23.87;;;12.60;;
21507;SDS011;10915;54.352;9.074;2022-12-18T17:40:59;24.13;;;12.60;;
21507;SDS011;10915;54.352;9.074;2022-12-18T17:43:27;22.10;;;12.30;;
21507;SDS011;10915;54.352;9.074;2022-12-18T17:45:54;25.87;;;12.20;;
21507;SDS011;10915;54.352;9.074;2022-12-18T17:48:19;29.67;;;14.00;;
21507;SDS011;10915;54.352;9.074;2022-12-18T17:50:45;27.10;;;11.77;;
21507;SDS011;10915;54.352;9.074;2022-12-18T17:53:10;25.03;;;12.90;;
21507;SDS011;10915;54.352;9.074;2022-12-18T17:55:36;34.13;;;13.67;;
21507;SDS011;10915;54.352;9.074;2022-12-18T17:58:02;27.87;;;14.00;;
21507;SDS011;10915;54.352;9.074;2022-12-18T18:00:27;45.20;;;13.13;;
21507;SDS011;10915;54.352;9.074;2022-12-18T18:02:53;30.67;;;14.57;;
21507;SDS011;10915;54.352;9.074;2022-12-18T18:05:19;27.27;;;13.43;;
21507;SDS011;10915;54.352;9.074;2022-12-18T18:07:45;30.00;;;13.93;;
21507;SDS011;10915;54.352;9.074;2022-12-18T18:10:11;33.13;;;14.03;;
21507;SDS011;10915;54.352;9.074;2022-12-18T18:12:37;31.33;;;14.30;;
21507;SDS011;10915;54.352;9.074;2022-12-18T18:15:21;27.53;;;11.60;;
21507;SDS011;10915;54.352;9.074;2022-12-18T18:17:47;29.67;;;13.70;;
21507;SDS011;10915;54.352;9.074;2022-12-18T18:20:12;31.67;;;14.00;;
21507;SDS011;10915;54.352;9.074;2022-12-18T18:22:39;33.67;;;12.53;;
21507;SDS011;10915;54.352;9.074;2022-12-18T18:25:05;30.07;;;13.97;;
21507;SDS011;10915;54.352;9.074;2022-12-18T18:27:31;33.53;;;13.97;;
21507;SDS011;10915;54.352;9.074;2022-12-18T18:29:57;33.07;;;13.30;;
21507;SDS011;10915;54.352;9.074;2022-12-18T18:32:22;35.07;;;13.87;;
21507;SDS011;10915;54.352;9.074;2022-12-18T18:34:48;32.37;;;13.07;;
21507;SDS011;10915;54.352;9.074;2022-12-18T18:37:14;36.27;;;13.67;;
21507;SDS011;10915;54.352;9.074;2022-12-18T18:39:40;35.20;;;14.83;;
21507;SDS011;10915;54.352;9.074;2022-12-18T18:42:05;37.63;;;15.17;;
21507;SDS011;10915;54.352;9.074;2022-12-18T18:44:31;35.67;;;15.27;;
21507;SDS011;10915;54.352;9.074;2022-12-18T18:46:57;34.37;;;14.30;;
21507;SDS011;10915;54.352;9.074;2022-12-18T18:49:23;39.67;;;14.50;;
21507;SDS011;10915;54.352;9.074;2022-12-18T18:51:51;34.63;;;13.47;;
21507;SDS011;10915;54.352;9.074;2022-12-18T18:54:17;35.20;;;14.90;;
21507;SDS011;10915;54.352;9.074;2022-12-18T18:56:44;34.57;;;15.20;;
21507;SDS011;10915;54.352;9.074;2022-12-18T18:59:12;33.87;;;14.47;;
21507;SDS011;10915;54.352;9.074;2022-12-18T19:01:37;35.13;;;14.07;;
21507;SDS011;10915;54.352;9.074;2022-12-18T19:04:03;38.97;;;25.10;;
21507;SDS011;10915;54.352;9.074;2022-12-18T19:06:29;35.87;;;15.00;;
21507;SDS011;10915;54.352;9.074;2022-12-18T19:08:55;41.37;;;15.60;;
21507;SDS011;10915;54.352;9.074;2022-12-18T19:11:22;33.40;;;15.83;;
21507;SDS011;10915;54.352;9.074;2022-12-18T19:14:08;34.77;;;15.10;;
21507;SDS011;10915;54.352;9.074;2022-12-18T19:16:35;42.03;;;15.93;;
21507;SDS011;10915;54.352;9.074;2022-12-18T19:19:01;39.30;;;16.10;;
21507;SDS011;10915;54.352;9.074;2022-12-18T19:21:27;31.40;;;13.40;;
21507;SDS011;10915;54.352;9.074;2022-12-18T19:23:53;33.30;;;14.50;;
21507;SDS011;10915;54.352;9.074;2022-12-18T19:26:19;30.77;;;14.10;;
21507;SDS011;10915;54.352;9.074;2022-12-18T19:28:46;36.77;;;13.63;;
21507;SDS011;10915;54.352;9.074;2022-12-18T19:31:13;40.97;;;14.57;;
21507;SDS011;10915;54.352;9.074;2022-12-18T19:33:40;40.77;;;15.13;;
21507;SDS011;10915;54.352;9.074;2022-12-18T19:38:39;35.47;;;14.03;;
21507;SDS011;10915;54.352;9.074;2022-12-18T19:41:06;34.63;;;14.43;;
21507;SDS011;10915;54.352;9.074;2022-12-18T19:43:33;34.83;;;14.00;;
21507;SDS011;10915;54.352;9.074;2022-12-18T19:46:05;39.63;;;14.40;;
21507;SDS011;10915;54.352;9.074;2022-12-18T19:48:32;35.77;;;14.43;;
21507;SDS011;10915;54.352;9.074;2022-12-18T19:51:09;29.17;;;10.38;;
21507;SDS011;10915;54.352;9.074;2022-12-18T19:53:44;32.37;;;14.00;;
21507;SDS011;10915;54.352;9.074;2022-12-18T19:56:14;40.30;;;14.40;;
21507;SDS011;10915;54.352;9.074;2022-12-18T19:58:42;38.07;;;14.37;;
21507;SDS011;10915;54.352;9.074;2022-12-18T20:01:08;34.80;;;14.73;;
21507;SDS011;10915;54.352;9.074;2022-12-18T20:03:34;32.07;;;14.23;;
21507;SDS011;10915;54.352;9.074;2022-12-18T20:06:13;32.73;;;14.10;;
21507;SDS011;10915;54.352;9.074;2022-12-18T20:08:45;34.97;;;14.27;;
21507;SDS011;10915;54.352;9.074;2022-12-18T20:11:11;34.03;;;13.80;;
21507;SDS011;10915;54.352;9.074;2022-12-18T20:13:37;30.53;;;14.43;;
21507;SDS011;10915;54.352;9.074;2022-12-18T20:16:03;32.30;;;13.80;;
21507;SDS011;10915;54.352;9.074;2022-12-18T20:18:28;31.97;;;13.60;;
21507;SDS011;10915;54.352;9.074;2022-12-18T20:20:54;32.63;;;15.40;;
21507;SDS011;10915;54.352;9.074;2022-12-18T20:23:20;37.93;;;22.60;;
21507;SDS011;10915;54.352;9.074;2022-12-18T20:25:46;34.60;;;18.57;;
21507;SDS011;10915;54.352;9.074;2022-12-18T20:28:12;34.83;;;18.03;;
21507;SDS011;10915;54.352;9.074;2022-12-18T20:30:38;35.83;;;17.37;;
21507;SDS011;10915;54.352;9.074;2022-12-18T20:33:04;38.87;;;18.53;;
21507;SDS011;10915;54.352;9.074;2022-12-18T20:35:33;35.03;;;16.60;;
21507;SDS011;10915;54.352;9.074;2022-12-18T20:38:08;35.90;;;16.20;;
21507;SDS011;10915;54.352;9.074;2022-12-18T20:40:40;31.93;;;15.60;;
21507;SDS011;10915;54.352;9.074;2022-12-18T20:43:09;30.97;;;15.30;;
21507;SDS011;10915;54.352;9.074;2022-12-18T20:45:35;33.30;;;16.90;;
21507;SDS011;10915;54.352;9.074;2022-12-18T20:48:01;32.30;;;15.40;;
21507;SDS011;10915;54.352;9.074;2022-12-18T20:50:27;30.33;;;16.43;;
21507;SDS011;10915;54.352;9.074;2022-12-18T20:52:53;32.13;;;14.63;;
21507;SDS011;10915;54.352;9.074;2022-12-18T20:55:19;36.07;;;16.53;;
21507;SDS011;10915;54.352;9.074;2022-12-18T20:57:44;29.17;;;14.97;;
21507;SDS011;10915;54.352;9.074;2022-12-18T21:00:10;31.83;;;16.07;;
21507;SDS011;10915;54.352;9.074;2022-12-18T21:02:36;28.60;;;14.80;;
21507;SDS011;10915;54.352;9.074;2022-12-18T21:05:02;32.13;;;15.93;;
21507;SDS011;10915;54.352;9.074;2022-12-18T21:07:28;33.27;;;15.87;;
21507;SDS011;10915;54.352;9.074;2022-12-18T21:09:53;28.33;;;15.73;;
21507;SDS011;10915;54.352;9.074;2022-12-18T21:12:19;30.73;;;15.77;;
21507;SDS011;10915;54.352;9.074;2022-12-18T21:15:03;28.70;;;15.20;;
21507;SDS011;10915;54.352;9.074;2022-12-18T21:17:31;30.57;;;14.03;;
21507;SDS011;10915;54.352;9.074;2022-12-18T21:19:57;25.10;;;14.30;;
21507;SDS011;10915;54.352;9.074;2022-12-18T21:22:23;32.00;;;14.67;;
21507;SDS011;10915;54.352;9.074;2022-12-18T21:24:49;25.63;;;13.67;;
21507;SDS011;10915;54.352;9.074;2022-12-18T21:27:15;26.67;;;14.00;;
21507;SDS011;10915;54.352;9.074;2022-12-18T21:29:41;25.13;;;14.03;;
21507;SDS011;10915;54.352;9.074;2022-12-18T21:32:07;23.70;;;13.10;;
21507;SDS011;10915;54.352;9.074;2022-12-18T21:34:33;30.17;;;13.50;;
21507;SDS011;10915;54.352;9.074;2022-12-18T21:36:59;27.83;;;13.37;;
21507;SDS011;10915;54.352;9.074;2022-12-18T21:39:26;28.48;;;13.50;;
21507;SDS011;10915;54.352;9.074;2022-12-18T21:41:53;28.90;;;18.57;;
21507;SDS011;10915;54.352;9.074;2022-12-18T21:44:38;27.02;;;18.42;;
21507;SDS011;10915;54.352;9.074;2022-12-18T21:47:11;25.40;;;18.10;;
21507;SDS011;10915;54.352;9.074;2022-12-18T21:49:38;25.33;;;17.03;;
21507;SDS011;10915;54.352;9.074;2022-12-18T21:52:03;25.60;;;15.60;;
21507;SDS011;10915;54.352;9.074;2022-12-18T21:54:30;26.73;;;15.63;;
21507;SDS011;10915;54.352;9.074;2022-12-18T21:56:57;26.67;;;15.67;;
21507;SDS011;10915;54.352;9.074;2022-12-18T21:59:30;24.13;;;15.07;;
21507;SDS011;10915;54.352;9.074;2022-12-18T22:02:03;25.53;;;14.43;;
21507;SDS011;10915;54.352;9.074;2022-12-18T22:04:34;23.67;;;13.87;;
21507;SDS011;10915;54.352;9.074;2022-12-18T22:07:00;27.23;;;13.87;;
21507;SDS011;10915;54.352;9.074;2022-12-18T22:09:26;24.40;;;12.23;;
21507;SDS011;10915;54.352;9.074;2022-12-18T22:11:52;22.57;;;13.03;;
21507;SDS011;10915;54.352;9.074;2022-12-18T22:14:19;23.23;;;13.70;;
21507;SDS011;10915;54.352;9.074;2022-12-18T22:16:45;24.67;;;13.47;;
21507;SDS011;10915;54.352;9.074;2022-12-18T22:19:12;23.20;;;12.97;;
21507;SDS011;10915;54.352;9.074;2022-12-18T22:21:39;24.47;;;13.53;;
21507;SDS011;10915;54.352;9.074;2022-12-18T22:24:09;22.20;;;11.77;;
21507;SDS011;10915;54.352;9.074;2022-12-18T22:26:38;23.20;;;11.40;;
21507;SDS011;10915;54.352;9.074;2022-12-18T22:29:04;24.07;;;12.77;;
21507;SDS011;10915;54.352;9.074;2022-12-18T22:31:48;25.53;;;13.57;;
21507;SDS011;10915;54.352;9.074;2022-12-18T22:34:14;25.57;;;13.17;;
21507;SDS011;10915;54.352;9.074;2022-12-18T22:36:41;22.57;;;12.13;;
21507;SDS011;10915;54.352;9.074;2022-12-18T22:39:10;24.63;;;12.33;;
21507;SDS011;10915;54.352;9.074;2022-12-18T22:41:38;21.70;;;11.70;;
21507;SDS011;10915;54.352;9.074;2022-12-18T22:44:04;20.37;;;11.87;;
21507;SDS011;10915;54.352;9.074;2022-12-18T22:46:30;21.00;;;12.17;;
21507;SDS011;10915;54.352;9.074;2022-12-18T22:48:58;24.77;;;12.90;;
21507;SDS011;10915;54.352;9.074;2022-12-18T22:51:23;25.17;;;12.83;;
21507;SDS011;10915;54.352;9.074;2022-12-18T22:53:49;22.03;;;11.80;;
21507;SDS011;10915;54.352;9.074;2022-12-18T22:56:15;24.23;;;12.33;;
21507;SDS011;10915;54.352;9.074;2022-12-18T22:58:41;23.93;;;12.37;;
21507;SDS011;10915;54.352;9.074;2022-12-18T23:01:06;20.90;;;11.97;;
21507;SDS011;10915;54.352;9.074;2022-12-18T23:03:41;22.50;;;12.67;;
21507;SDS011;10915;54.352;9.074;2022-12-18T23:06:08;21.87;;;11.47;;
21507;SDS011;10915;54.352;9.074;2022-12-18T23:08:34;29.90;;;12.37;;
21507;SDS011;10915;54.352;9.074;2022-12-18T23:10:59;25.77;;;13.17;;
21507;SDS011;10915;54.352;9.074;2022-12-18T23:13:26;25.73;;;12.23;;
21507;SDS011;10915;54.352;9.074;2022-12-18T23:15:52;20.37;;;11.43;;
21507;SDS011;10915;54.352;9.074;2022-12-18T23:18:18;22.63;;;10.70;;
21507;SDS011;10915;54.352;9.074;2022-12-18T23:20:45;26.97;;;12.30;;
21507;SDS011;10915;54.352;9.074;2022-12-18T23:23:10;26.57;;;11.90;;
21507;SDS011;10915;54.352;9.074;2022-12-18T23:25:36;22.87;;;12.40;;
21507;SDS011;10915;54.352;9.074;2022-12-18T23:28:02;22.00;;;11.47;;